Nobleford, Canada
Current Conditions -  °F | °C
As of 2:00 PM on Friday 31 Oct 2014 (Local Time) from CYQL Reporting Station
Broken Clouds Broken Clouds  
Wind Chill: 61°   Ceiling: 16000
Heat Index: 61°   Visibility: 40mi
Dew Point: 41°   Wind: 2mph
Humidity: 48%   Direction: 280°W
Pressure: 29.64"   Gusts: NA
Location:  49.88°N, 113.05°W
Report Text: CYQL 312000Z 28002KT 40SM FEW060 BKN160 BKN300 16/05 A2964 RMK SC1AC6CI1 SC TR SLP042 DENSITY ALT 4100FT
Loading
Personal Weather Stations






























Interactive Weather Map
Tropical Storm Tracking
New forecast layout! Learn more

10-Day Weather Forecast

Advertisements
Track Severe Weather on mobile